sensor_id;sensor_type;location;lat;lon;timestamp;P1;durP1;ratioP1;P2;durP2;ratioP2
45049;SDS011;61798;48.048;-1.928;2023-04-03T00:00:48;16.27;;;5.50;;
45049;SDS011;61798;48.048;-1.928;2023-04-03T00:02:55;13.13;;;5.53;;
45049;SDS011;61798;48.048;-1.928;2023-04-03T00:05:01;8.57;;;4.22;;
45049;SDS011;61798;48.048;-1.928;2023-04-03T00:07:07;11.05;;;4.65;;
45049;SDS011;61798;48.048;-1.928;2023-04-03T00:09:13;9.18;;;4.72;;
45049;SDS011;61798;48.048;-1.928;2023-04-03T00:11:19;11.13;;;4.60;;
45049;SDS011;61798;48.048;-1.928;2023-04-03T00:13:26;12.95;;;4.57;;
45049;SDS011;61798;48.048;-1.928;2023-04-03T00:15:32;14.00;;;4.60;;
45049;SDS011;61798;48.048;-1.928;2023-04-03T00:17:39;15.35;;;5.78;;
45049;SDS011;61798;48.048;-1.928;2023-04-03T00:19:45;10.85;;;4.88;;
45049;SDS011;61798;48.048;-1.928;2023-04-03T00:21:51;14.50;;;5.75;;
45049;SDS011;61798;48.048;-1.928;2023-04-03T00:23:59;10.85;;;5.03;;
45049;SDS011;61798;48.048;-1.928;2023-04-03T00:26:05;12.65;;;5.43;;
45049;SDS011;61798;48.048;-1.928;2023-04-03T00:28:11;10.90;;;5.70;;
45049;SDS011;61798;48.048;-1.928;2023-04-03T00:30:18;15.18;;;6.07;;
45049;SDS011;61798;48.048;-1.928;2023-04-03T00:32:26;16.50;;;6.15;;
45049;SDS011;61798;48.048;-1.928;2023-04-03T00:34:32;14.40;;;5.70;;
45049;SDS011;61798;48.048;-1.928;2023-04-03T00:36:38;12.77;;;5.18;;
45049;SDS011;61798;48.048;-1.928;2023-04-03T00:38:44;15.35;;;5.63;;
45049;SDS011;61798;48.048;-1.928;2023-04-03T00:40:50;15.48;;;5.88;;
45049;SDS011;61798;48.048;-1.928;2023-04-03T00:42:57;21.35;;;6.38;;
45049;SDS011;61798;48.048;-1.928;2023-04-03T00:47:11;21.38;;;6.32;;
45049;SDS011;61798;48.048;-1.928;2023-04-03T00:49:19;23.73;;;5.72;;
45049;SDS011;61798;48.048;-1.928;2023-04-03T00:51:25;19.58;;;6.35;;
45049;SDS011;61798;48.048;-1.928;2023-04-03T00:53:37;14.13;;;5.43;;
45049;SDS011;61798;48.048;-1.928;2023-04-03T00:55:47;17.88;;;5.00;;
45049;SDS011;61798;48.048;-1.928;2023-04-03T00:57:55;16.77;;;5.15;;
45049;SDS011;61798;48.048;-1.928;2023-04-03T01:00:04;16.55;;;5.47;;
45049;SDS011;61798;48.048;-1.928;2023-04-03T01:02:13;15.25;;;5.93;;
45049;SDS011;61798;48.048;-1.928;2023-04-03T01:04:29;15.85;;;5.18;;
45049;SDS011;61798;48.048;-1.928;2023-04-03T01:06:43;16.00;;;5.47;;
45049;SDS011;61798;48.048;-1.928;2023-04-03T01:08:49;16.50;;;5.72;;
45049;SDS011;61798;48.048;-1.928;2023-04-03T01:10:56;20.00;;;5.68;;
45049;SDS011;61798;48.048;-1.928;2023-04-03T01:13:02;20.52;;;6.10;;
45049;SDS011;61798;48.048;-1.928;2023-04-03T01:15:25;21.00;;;5.80;;
45049;SDS011;61798;48.048;-1.928;2023-04-03T01:17:38;10.25;;;4.97;;
45049;SDS011;61798;48.048;-1.928;2023-04-03T01:19:46;20.55;;;6.57;;
45049;SDS011;61798;48.048;-1.928;2023-04-03T01:24:28;12.50;;;4.68;;
45049;SDS011;61798;48.048;-1.928;2023-04-03T01:26:38;14.23;;;5.32;;
45049;SDS011;61798;48.048;-1.928;2023-04-03T01:28:44;14.93;;;5.63;;
45049;SDS011;61798;48.048;-1.928;2023-04-03T01:30:53;16.73;;;5.85;;
45049;SDS011;61798;48.048;-1.928;2023-04-03T01:33:10;15.88;;;5.53;;
45049;SDS011;61798;48.048;-1.928;2023-04-03T01:35:16;19.90;;;5.00;;
45049;SDS011;61798;48.048;-1.928;2023-04-03T01:37:23;18.15;;;5.03;;
45049;SDS011;61798;48.048;-1.928;2023-04-03T01:39:29;20.95;;;5.10;;
45049;SDS011;61798;48.048;-1.928;2023-04-03T01:41:35;21.55;;;5.53;;
45049;SDS011;61798;48.048;-1.928;2023-04-03T01:43:41;19.70;;;5.53;;
45049;SDS011;61798;48.048;-1.928;2023-04-03T01:45:48;18.20;;;5.53;;
45049;SDS011;61798;48.048;-1.928;2023-04-03T01:48:00;14.80;;;5.13;;
45049;SDS011;61798;48.048;-1.928;2023-04-03T01:50:06;15.23;;;5.18;;
45049;SDS011;61798;48.048;-1.928;2023-04-03T01:52:12;24.45;;;5.97;;
45049;SDS011;61798;48.048;-1.928;2023-04-03T01:54:18;18.17;;;5.60;;
45049;SDS011;61798;48.048;-1.928;2023-04-03T01:56:24;16.73;;;5.28;;
45049;SDS011;61798;48.048;-1.928;2023-04-03T01:58:31;24.23;;;5.63;;
45049;SDS011;61798;48.048;-1.928;2023-04-03T02:00:37;24.17;;;5.28;;
45049;SDS011;61798;48.048;-1.928;2023-04-03T02:02:43;21.10;;;5.60;;
45049;SDS011;61798;48.048;-1.928;2023-04-03T02:04:49;21.98;;;5.75;;
45049;SDS011;61798;48.048;-1.928;2023-04-03T02:06:55;29.77;;;6.82;;
45049;SDS011;61798;48.048;-1.928;2023-04-03T02:09:01;20.33;;;5.30;;
45049;SDS011;61798;48.048;-1.928;2023-04-03T02:11:07;23.30;;;5.53;;
45049;SDS011;61798;48.048;-1.928;2023-04-03T02:13:13;18.02;;;5.03;;
45049;SDS011;61798;48.048;-1.928;2023-04-03T02:15:19;14.13;;;4.72;;
45049;SDS011;61798;48.048;-1.928;2023-04-03T02:17:25;16.15;;;4.97;;
45049;SDS011;61798;48.048;-1.928;2023-04-03T02:19:31;20.38;;;5.18;;
45049;SDS011;61798;48.048;-1.928;2023-04-03T02:21:37;17.73;;;4.47;;
45049;SDS011;61798;48.048;-1.928;2023-04-03T02:23:43;16.25;;;4.40;;
45049;SDS011;61798;48.048;-1.928;2023-04-03T02:25:49;19.35;;;4.90;;
45049;SDS011;61798;48.048;-1.928;2023-04-03T02:27:55;22.73;;;4.80;;
45049;SDS011;61798;48.048;-1.928;2023-04-03T02:30:02;12.15;;;4.65;;
45049;SDS011;61798;48.048;-1.928;2023-04-03T02:32:09;18.75;;;4.80;;
45049;SDS011;61798;48.048;-1.928;2023-04-03T02:34:15;19.80;;;4.60;;
45049;SDS011;61798;48.048;-1.928;2023-04-03T02:36:21;16.95;;;4.47;;
45049;SDS011;61798;48.048;-1.928;2023-04-03T02:38:27;17.05;;;4.57;;
45049;SDS011;61798;48.048;-1.928;2023-04-03T02:40:33;19.25;;;4.50;;
45049;SDS011;61798;48.048;-1.928;2023-04-03T02:42:39;22.75;;;4.60;;
45049;SDS011;61798;48.048;-1.928;2023-04-03T02:44:45;19.30;;;4.13;;
45049;SDS011;61798;48.048;-1.928;2023-04-03T02:46:52;9.60;;;4.15;;
45049;SDS011;61798;48.048;-1.928;2023-04-03T02:48:58;17.42;;;4.53;;
45049;SDS011;61798;48.048;-1.928;2023-04-03T02:51:04;14.57;;;4.35;;
45049;SDS011;61798;48.048;-1.928;2023-04-03T02:53:10;25.42;;;5.20;;
45049;SDS011;61798;48.048;-1.928;2023-04-03T02:55:16;13.27;;;4.28;;
45049;SDS011;61798;48.048;-1.928;2023-04-03T02:57:22;18.52;;;4.70;;
45049;SDS011;61798;48.048;-1.928;2023-04-03T02:59:28;16.98;;;4.32;;
45049;SDS011;61798;48.048;-1.928;2023-04-03T03:01:35;20.52;;;4.78;;
45049;SDS011;61798;48.048;-1.928;2023-04-03T03:03:41;15.60;;;3.70;;
45049;SDS011;61798;48.048;-1.928;2023-04-03T03:05:47;31.42;;;5.07;;
45049;SDS011;61798;48.048;-1.928;2023-04-03T03:07:53;19.83;;;4.93;;
45049;SDS011;61798;48.048;-1.928;2023-04-03T03:10:00;22.92;;;5.05;;
45049;SDS011;61798;48.048;-1.928;2023-04-03T03:12:06;12.85;;;4.28;;
45049;SDS011;61798;48.048;-1.928;2023-04-03T03:14:12;17.85;;;4.38;;
45049;SDS011;61798;48.048;-1.928;2023-04-03T03:16:18;18.45;;;4.70;;
45049;SDS011;61798;48.048;-1.928;2023-04-03T03:18:24;14.40;;;4.38;;
45049;SDS011;61798;48.048;-1.928;2023-04-03T03:20:30;18.25;;;4.55;;
45049;SDS011;61798;48.048;-1.928;2023-04-03T03:22:36;25.25;;;5.35;;
45049;SDS011;61798;48.048;-1.928;2023-04-03T03:24:42;25.05;;;5.05;;
45049;SDS011;61798;48.048;-1.928;2023-04-03T03:26:48;20.58;;;4.97;;
45049;SDS011;61798;48.048;-1.928;2023-04-03T03:28:55;19.00;;;4.88;;
45049;SDS011;61798;48.048;-1.928;2023-04-03T03:31:01;20.35;;;5.03;;
45049;SDS011;61798;48.048;-1.928;2023-04-03T03:33:07;16.65;;;6.13;;
45049;SDS011;61798;48.048;-1.928;2023-04-03T03:35:13;24.10;;;4.57;;
45049;SDS011;61798;48.048;-1.928;2023-04-03T03:37:19;21.20;;;4.38;;
45049;SDS011;61798;48.048;-1.928;2023-04-03T03:39:25;21.77;;;4.30;;
45049;SDS011;61798;48.048;-1.928;2023-04-03T03:41:32;18.30;;;4.43;;
45049;SDS011;61798;48.048;-1.928;2023-04-03T03:43:38;17.50;;;5.00;;
45049;SDS011;61798;48.048;-1.928;2023-04-03T03:45:44;16.73;;;4.88;;
45049;SDS011;61798;48.048;-1.928;2023-04-03T03:47:51;27.55;;;4.38;;
45049;SDS011;61798;48.048;-1.928;2023-04-03T03:49:58;17.80;;;3.80;;
45049;SDS011;61798;48.048;-1.928;2023-04-03T03:52:04;18.83;;;4.25;;
45049;SDS011;61798;48.048;-1.928;2023-04-03T03:54:10;30.33;;;5.22;;
45049;SDS011;61798;48.048;-1.928;2023-04-03T03:56:16;16.63;;;4.35;;
45049;SDS011;61798;48.048;-1.928;2023-04-03T03:58:22;19.10;;;4.15;;
45049;SDS011;61798;48.048;-1.928;2023-04-03T04:00:28;21.67;;;5.93;;
45049;SDS011;61798;48.048;-1.928;2023-04-03T04:02:35;24.58;;;4.80;;
45049;SDS011;61798;48.048;-1.928;2023-04-03T04:04:41;20.52;;;5.32;;
45049;SDS011;61798;48.048;-1.928;2023-04-03T04:06:47;16.15;;;4.75;;
45049;SDS011;61798;48.048;-1.928;2023-04-03T04:08:53;12.93;;;3.97;;
45049;SDS011;61798;48.048;-1.928;2023-04-03T04:10:59;24.40;;;5.35;;
45049;SDS011;61798;48.048;-1.928;2023-04-03T04:13:05;23.27;;;4.53;;
45049;SDS011;61798;48.048;-1.928;2023-04-03T04:15:11;20.08;;;4.43;;
45049;SDS011;61798;48.048;-1.928;2023-04-03T04:17:17;21.05;;;4.20;;
45049;SDS011;61798;48.048;-1.928;2023-04-03T04:19:23;15.25;;;3.72;;
45049;SDS011;61798;48.048;-1.928;2023-04-03T04:21:30;18.63;;;4.20;;
45049;SDS011;61798;48.048;-1.928;2023-04-03T04:23:35;17.73;;;5.40;;
45049;SDS011;61798;48.048;-1.928;2023-04-03T04:25:43;23.65;;;5.07;;
45049;SDS011;61798;48.048;-1.928;2023-04-03T04:27:51;27.40;;;4.85;;
45049;SDS011;61798;48.048;-1.928;2023-04-03T04:29:57;26.05;;;4.50;;
45049;SDS011;61798;48.048;-1.928;2023-04-03T04:32:03;26.13;;;4.55;;
45049;SDS011;61798;48.048;-1.928;2023-04-03T04:34:12;16.98;;;4.30;;
45049;SDS011;61798;48.048;-1.928;2023-04-03T04:36:19;18.27;;;4.07;;
45049;SDS011;61798;48.048;-1.928;2023-04-03T04:38:27;20.60;;;5.10;;
45049;SDS011;61798;48.048;-1.928;2023-04-03T04:40:38;22.65;;;4.90;;
45049;SDS011;61798;48.048;-1.928;2023-04-03T04:42:47;21.15;;;4.25;;
45049;SDS011;61798;48.048;-1.928;2023-04-03T04:44:55;23.98;;;4.50;;
45049;SDS011;61798;48.048;-1.928;2023-04-03T04:47:02;21.35;;;4.88;;
45049;SDS011;61798;48.048;-1.928;2023-04-03T04:49:10;20.52;;;4.78;;
45049;SDS011;61798;48.048;-1.928;2023-04-03T04:51:17;19.98;;;4.32;;
45049;SDS011;61798;48.048;-1.928;2023-04-03T04:53:23;19.80;;;5.97;;
45049;SDS011;61798;48.048;-1.928;2023-04-03T04:55:29;22.30;;;6.57;;
45049;SDS011;61798;48.048;-1.928;2023-04-03T04:57:35;26.52;;;4.75;;
45049;SDS011;61798;48.048;-1.928;2023-04-03T04:59:42;22.33;;;4.90;;
45049;SDS011;61798;48.048;-1.928;2023-04-03T05:01:48;18.98;;;4.90;;
45049;SDS011;61798;48.048;-1.928;2023-04-03T05:03:54;18.55;;;4.70;;
45049;SDS011;61798;48.048;-1.928;2023-04-03T05:06:00;20.73;;;5.32;;
45049;SDS011;61798;48.048;-1.928;2023-04-03T05:08:06;27.17;;;4.75;;
45049;SDS011;61798;48.048;-1.928;2023-04-03T05:10:15;17.08;;;6.40;;
45049;SDS011;61798;48.048;-1.928;2023-04-03T05:12:23;22.25;;;4.82;;
45049;SDS011;61798;48.048;-1.928;2023-04-03T05:14:30;19.25;;;4.68;;
45049;SDS011;61798;48.048;-1.928;2023-04-03T05:16:36;23.77;;;5.18;;
45049;SDS011;61798;48.048;-1.928;2023-04-03T05:18:43;20.85;;;5.10;;
45049;SDS011;61798;48.048;-1.928;2023-04-03T05:20:50;17.10;;;5.43;;
45049;SDS011;61798;48.048;-1.928;2023-04-03T05:22:58;19.23;;;6.25;;
45049;SDS011;61798;48.048;-1.928;2023-04-03T05:25:06;27.17;;;8.98;;
45049;SDS011;61798;48.048;-1.928;2023-04-03T05:27:13;42.05;;;13.43;;
45049;SDS011;61798;48.048;-1.928;2023-04-03T05:29:21;16.45;;;5.22;;
45049;SDS011;61798;48.048;-1.928;2023-04-03T05:31:28;26.05;;;5.68;;
45049;SDS011;61798;48.048;-1.928;2023-04-03T05:33:35;14.50;;;4.35;;
45049;SDS011;61798;48.048;-1.928;2023-04-03T05:35:41;16.88;;;4.47;;
45049;SDS011;61798;48.048;-1.928;2023-04-03T05:37:49;19.58;;;4.47;;
45049;SDS011;61798;48.048;-1.928;2023-04-03T05:39:55;17.58;;;4.60;;
45049;SDS011;61798;48.048;-1.928;2023-04-03T05:42:01;11.57;;;4.20;;
45049;SDS011;61798;48.048;-1.928;2023-04-03T05:44:08;18.80;;;5.35;;
45049;SDS011;61798;48.048;-1.928;2023-04-03T05:46:15;16.70;;;5.10;;
45049;SDS011;61798;48.048;-1.928;2023-04-03T05:48:23;15.95;;;4.15;;
45049;SDS011;61798;48.048;-1.928;2023-04-03T05:50:30;26.45;;;5.15;;
45049;SDS011;61798;48.048;-1.928;2023-04-03T05:52:39;20.13;;;6.18;;
45049;SDS011;61798;48.048;-1.928;2023-04-03T05:54:50;16.45;;;5.38;;
45049;SDS011;61798;48.048;-1.928;2023-04-03T05:56:57;25.10;;;5.85;;
45049;SDS011;61798;48.048;-1.928;2023-04-03T05:59:04;15.82;;;5.05;;
45049;SDS011;61798;48.048;-1.928;2023-04-03T06:01:10;18.73;;;5.00;;
45049;SDS011;61798;48.048;-1.928;2023-04-03T06:03:17;18.27;;;6.07;;
45049;SDS011;61798;48.048;-1.928;2023-04-03T06:05:23;18.05;;;6.00;;
45049;SDS011;61798;48.048;-1.928;2023-04-03T06:07:29;19.02;;;6.55;;
45049;SDS011;61798;48.048;-1.928;2023-04-03T06:09:36;15.32;;;4.50;;
45049;SDS011;61798;48.048;-1.928;2023-04-03T06:11:42;22.05;;;7.80;;
45049;SDS011;61798;48.048;-1.928;2023-04-03T06:13:48;18.02;;;7.22;;
45049;SDS011;61798;48.048;-1.928;2023-04-03T06:15:54;15.23;;;5.72;;
45049;SDS011;61798;48.048;-1.928;2023-04-03T06:18:01;14.27;;;5.72;;
45049;SDS011;61798;48.048;-1.928;2023-04-03T06:20:07;21.35;;;4.82;;
45049;SDS011;61798;48.048;-1.928;2023-04-03T06:22:13;20.30;;;5.35;;
45049;SDS011;61798;48.048;-1.928;2023-04-03T06:24:19;17.50;;;7.03;;
45049;SDS011;61798;48.048;-1.928;2023-04-03T06:26:27;20.23;;;6.63;;
45049;SDS011;61798;48.048;-1.928;2023-04-03T06:28:33;17.27;;;5.45;;
45049;SDS011;61798;48.048;-1.928;2023-04-03T06:30:39;10.15;;;4.55;;
45049;SDS011;61798;48.048;-1.928;2023-04-03T06:32:46;15.60;;;6.28;;
45049;SDS011;61798;48.048;-1.928;2023-04-03T06:34:52;18.00;;;5.97;;
45049;SDS011;61798;48.048;-1.928;2023-04-03T06:36:58;13.02;;;4.90;;
45049;SDS011;61798;48.048;-1.928;2023-04-03T06:39:05;14.82;;;6.25;;
45049;SDS011;61798;48.048;-1.928;2023-04-03T06:41:12;16.95;;;6.57;;
45049;SDS011;61798;48.048;-1.928;2023-04-03T06:43:18;20.13;;;5.75;;
45049;SDS011;61798;48.048;-1.928;2023-04-03T06:45:24;14.00;;;5.45;;
45049;SDS011;61798;48.048;-1.928;2023-04-03T06:47:31;18.58;;;6.32;;
45049;SDS011;61798;48.048;-1.928;2023-04-03T06:49:37;21.90;;;7.47;;
45049;SDS011;61798;48.048;-1.928;2023-04-03T06:51:43;20.25;;;6.53;;
45049;SDS011;61798;48.048;-1.928;2023-04-03T06:53:49;17.05;;;6.82;;
45049;SDS011;61798;48.048;-1.928;2023-04-03T06:55:57;13.38;;;6.65;;
45049;SDS011;61798;48.048;-1.928;2023-04-03T06:58:03;18.13;;;6.20;;
45049;SDS011;61798;48.048;-1.928;2023-04-03T07:00:10;16.58;;;5.25;;
45049;SDS011;61798;48.048;-1.928;2023-04-03T07:02:17;18.67;;;6.38;;
45049;SDS011;61798;48.048;-1.928;2023-04-03T07:04:24;16.90;;;7.72;;
45049;SDS011;61798;48.048;-1.928;2023-04-03T07:06:30;17.13;;;6.75;;
45049;SDS011;61798;48.048;-1.928;2023-04-03T07:08:37;17.60;;;6.90;;
45049;SDS011;61798;48.048;-1.928;2023-04-03T07:10:44;14.57;;;6.47;;
45049;SDS011;61798;48.048;-1.928;2023-04-03T07:12:50;18.40;;;6.72;;
45049;SDS011;61798;48.048;-1.928;2023-04-03T07:14:56;12.23;;;6.55;;
45049;SDS011;61798;48.048;-1.928;2023-04-03T07:17:02;14.30;;;6.80;;
45049;SDS011;61798;48.048;-1.928;2023-04-03T07:19:08;16.92;;;6.60;;
45049;SDS011;61798;48.048;-1.928;2023-04-03T07:21:15;14.60;;;6.80;;
45049;SDS011;61798;48.048;-1.928;2023-04-03T07:23:21;19.95;;;6.63;;
45049;SDS011;61798;48.048;-1.928;2023-04-03T07:25:28;17.08;;;7.43;;
45049;SDS011;61798;48.048;-1.928;2023-04-03T07:27:34;11.10;;;5.13;;
45049;SDS011;61798;48.048;-1.928;2023-04-03T07:29:40;14.15;;;5.50;;
45049;SDS011;61798;48.048;-1.928;2023-04-03T07:31:47;14.88;;;5.70;;
45049;SDS011;61798;48.048;-1.928;2023-04-03T07:33:53;22.50;;;7.70;;
45049;SDS011;61798;48.048;-1.928;2023-04-03T07:35:59;21.80;;;8.40;;
45049;SDS011;61798;48.048;-1.928;2023-04-03T07:38:06;19.88;;;7.63;;
45049;SDS011;61798;48.048;-1.928;2023-04-03T07:40:12;13.93;;;5.53;;
45049;SDS011;61798;48.048;-1.928;2023-04-03T07:42:18;11.73;;;5.65;;
45049;SDS011;61798;48.048;-1.928;2023-04-03T07:44:24;20.13;;;8.38;;
45049;SDS011;61798;48.048;-1.928;2023-04-03T07:46:30;17.48;;;6.63;;
45049;SDS011;61798;48.048;-1.928;2023-04-03T07:48:37;15.05;;;6.00;;
45049;SDS011;61798;48.048;-1.928;2023-04-03T07:50:44;15.73;;;5.82;;
45049;SDS011;61798;48.048;-1.928;2023-04-03T07:52:50;13.63;;;6.78;;
45049;SDS011;61798;48.048;-1.928;2023-04-03T07:54:58;11.32;;;6.05;;
45049;SDS011;61798;48.048;-1.928;2023-04-03T07:57:04;15.75;;;6.45;;
45049;SDS011;61798;48.048;-1.928;2023-04-03T07:59:10;13.98;;;5.93;;
45049;SDS011;61798;48.048;-1.928;2023-04-03T08:01:17;9.77;;;6.88;;
45049;SDS011;61798;48.048;-1.928;2023-04-03T08:03:23;11.43;;;6.25;;
45049;SDS011;61798;48.048;-1.928;2023-04-03T08:05:29;13.88;;;6.40;;
45049;SDS011;61798;48.048;-1.928;2023-04-03T08:07:36;12.00;;;5.93;;
45049;SDS011;61798;48.048;-1.928;2023-04-03T08:09:43;12.95;;;6.35;;
45049;SDS011;61798;48.048;-1.928;2023-04-03T08:11:50;10.90;;;6.32;;
45049;SDS011;61798;48.048;-1.928;2023-04-03T08:13:58;15.82;;;6.00;;
45049;SDS011;61798;48.048;-1.928;2023-04-03T08:16:09;13.50;;;6.22;;
45049;SDS011;61798;48.048;-1.928;2023-04-03T08:18:22;13.80;;;6.22;;
45049;SDS011;61798;48.048;-1.928;2023-04-03T08:20:30;13.50;;;6.57;;
45049;SDS011;61798;48.048;-1.928;2023-04-03T08:22:36;9.98;;;6.55;;
45049;SDS011;61798;48.048;-1.928;2023-04-03T08:24:42;16.92;;;7.55;;
45049;SDS011;61798;48.048;-1.928;2023-04-03T08:26:48;13.38;;;6.80;;
45049;SDS011;61798;48.048;-1.928;2023-04-03T08:28:54;17.30;;;7.35;;
45049;SDS011;61798;48.048;-1.928;2023-04-03T08:31:04;17.90;;;7.53;;
45049;SDS011;61798;48.048;-1.928;2023-04-03T08:33:12;16.42;;;8.20;;
45049;SDS011;61798;48.048;-1.928;2023-04-03T08:35:18;14.32;;;7.25;;
45049;SDS011;61798;48.048;-1.928;2023-04-03T08:37:26;15.63;;;7.53;;
45049;SDS011;61798;48.048;-1.928;2023-04-03T08:39:32;9.27;;;6.72;;
45049;SDS011;61798;48.048;-1.928;2023-04-03T08:41:39;14.82;;;7.15;;
45049;SDS011;61798;48.048;-1.928;2023-04-03T08:45:57;14.05;;;6.70;;
45049;SDS011;61798;48.048;-1.928;2023-04-03T08:48:08;16.88;;;7.72;;
45049;SDS011;61798;48.048;-1.928;2023-04-03T08:50:20;12.88;;;6.32;;
45049;SDS011;61798;48.048;-1.928;2023-04-03T08:54:52;14.35;;;6.65;;
45049;SDS011;61798;48.048;-1.928;2023-04-03T08:57:02;14.50;;;7.07;;
45049;SDS011;61798;48.048;-1.928;2023-04-03T08:59:12;11.52;;;6.55;;
45049;SDS011;61798;48.048;-1.928;2023-04-03T09:01:24;11.52;;;6.57;;
45049;SDS011;61798;48.048;-1.928;2023-04-03T09:03:36;12.20;;;7.47;;
45049;SDS011;61798;48.048;-1.928;2023-04-03T09:09:14;16.13;;;7.97;;
45049;SDS011;61798;48.048;-1.928;2023-04-03T09:14:12;21.83;;;9.93;;
45049;SDS011;61798;48.048;-1.928;2023-04-03T09:18:52;14.25;;;7.88;;
45049;SDS011;61798;48.048;-1.928;2023-04-03T09:26:05;16.80;;;7.65;;
45049;SDS011;61798;48.048;-1.928;2023-04-03T09:28:16;13.60;;;8.23;;
45049;SDS011;61798;48.048;-1.928;2023-04-03T09:30:23;17.52;;;7.82;;
45049;SDS011;61798;48.048;-1.928;2023-04-03T09:32:32;12.48;;;7.43;;
45049;SDS011;61798;48.048;-1.928;2023-04-03T09:34:41;14.27;;;8.60;;
45049;SDS011;61798;48.048;-1.928;2023-04-03T09:36:55;14.20;;;8.35;;
45049;SDS011;61798;48.048;-1.928;2023-04-03T09:39:05;14.57;;;7.60;;
45049;SDS011;61798;48.048;-1.928;2023-04-03T09:41:21;15.43;;;8.63;;
45049;SDS011;61798;48.048;-1.928;2023-04-03T09:43:30;19.02;;;9.60;;
45049;SDS011;61798;48.048;-1.928;2023-04-03T09:45:40;14.32;;;9.55;;
45049;SDS011;61798;48.048;-1.928;2023-04-03T09:47:46;16.88;;;8.70;;
45049;SDS011;61798;48.048;-1.928;2023-04-03T09:50:08;16.42;;;8.52;;
45049;SDS011;61798;48.048;-1.928;2023-04-03T09:52:26;15.60;;;9.88;;
45049;SDS011;61798;48.048;-1.928;2023-04-03T09:54:33;16.27;;;8.55;;
45049;SDS011;61798;48.048;-1.928;2023-04-03T09:56:44;17.92;;;8.75;;
45049;SDS011;61798;48.048;-1.928;2023-04-03T10:01:05;16.30;;;7.88;;
45049;SDS011;61798;48.048;-1.928;2023-04-03T10:03:25;14.43;;;8.20;;
45049;SDS011;61798;48.048;-1.928;2023-04-03T10:07:42;14.02;;;8.80;;
45049;SDS011;61798;48.048;-1.928;2023-04-03T10:09:54;14.98;;;9.73;;
45049;SDS011;61798;48.048;-1.928;2023-04-03T10:12:06;15.63;;;9.75;;
45049;SDS011;61798;48.048;-1.928;2023-04-03T10:14:17;16.73;;;10.27;;
45049;SDS011;61798;48.048;-1.928;2023-04-03T10:16:25;18.92;;;9.05;;
45049;SDS011;61798;48.048;-1.928;2023-04-03T10:20:53;13.80;;;9.43;;
45049;SDS011;61798;48.048;-1.928;2023-04-03T10:23:21;23.27;;;12.45;;
45049;SDS011;61798;48.048;-1.928;2023-04-03T10:28:02;15.32;;;9.85;;
45049;SDS011;61798;48.048;-1.928;2023-04-03T10:30:21;20.77;;;11.63;;
45049;SDS011;61798;48.048;-1.928;2023-04-03T10:35:08;19.65;;;12.30;;
45049;SDS011;61798;48.048;-1.928;2023-04-03T10:37:42;20.83;;;12.27;;
45049;SDS011;61798;48.048;-1.928;2023-04-03T10:42:37;16.88;;;11.32;;
45049;SDS011;61798;48.048;-1.928;2023-04-03T10:45:15;20.60;;;12.13;;
45049;SDS011;61798;48.048;-1.928;2023-04-03T10:47:32;17.48;;;11.57;;
45049;SDS011;61798;48.048;-1.928;2023-04-03T10:50:13;17.05;;;11.30;;
45049;SDS011;61798;48.048;-1.928;2023-04-03T10:57:20;15.48;;;10.88;;
45049;SDS011;61798;48.048;-1.928;2023-04-03T10:59:37;16.60;;;11.82;;
45049;SDS011;61798;48.048;-1.928;2023-04-03T11:01:51;19.15;;;11.68;;
45049;SDS011;61798;48.048;-1.928;2023-04-03T11:04:05;16.08;;;11.23;;
45049;SDS011;61798;48.048;-1.928;2023-04-03T11:06:13;16.70;;;11.75;;
45049;SDS011;61798;48.048;-1.928;2023-04-03T11:11:09;19.27;;;12.00;;
45049;SDS011;61798;48.048;-1.928;2023-04-03T11:13:28;15.43;;;11.23;;
45049;SDS011;61798;48.048;-1.928;2023-04-03T11:15:40;16.48;;;11.20;;
45049;SDS011;61798;48.048;-1.928;2023-04-03T11:17:48;18.35;;;12.00;;
45049;SDS011;61798;48.048;-1.928;2023-04-03T11:20:04;15.88;;;11.20;;
45049;SDS011;61798;48.048;-1.928;2023-04-03T11:22:30;16.90;;;11.35;;
45049;SDS011;61798;48.048;-1.928;2023-04-03T11:24:51;17.20;;;10.85;;
45049;SDS011;61798;48.048;-1.928;2023-04-03T11:27:17;14.82;;;11.27;;
45049;SDS011;61798;48.048;-1.928;2023-04-03T11:29:31;17.73;;;11.98;;
45049;SDS011;61798;48.048;-1.928;2023-04-03T11:36:20;17.65;;;11.57;;
45049;SDS011;61798;48.048;-1.928;2023-04-03T11:38:32;18.25;;;11.85;;
45049;SDS011;61798;48.048;-1.928;2023-04-03T11:40:41;16.42;;;11.60;;
45049;SDS011;61798;48.048;-1.928;2023-04-03T11:42:54;14.57;;;10.45;;
45049;SDS011;61798;48.048;-1.928;2023-04-03T11:45:25;16.17;;;11.55;;
45049;SDS011;61798;48.048;-1.928;2023-04-03T11:47:44;15.98;;;11.32;;
45049;SDS011;61798;48.048;-1.928;2023-04-03T11:49:57;14.40;;;10.40;;
45049;SDS011;61798;48.048;-1.928;2023-04-03T11:52:10;17.63;;;11.85;;
45049;SDS011;61798;48.048;-1.928;2023-04-03T11:56:50;15.45;;;12.05;;
45049;SDS011;61798;48.048;-1.928;2023-04-03T12:04:04;16.27;;;11.57;;
45049;SDS011;61798;48.048;-1.928;2023-04-03T12:08:28;18.23;;;12.35;;
45049;SDS011;61798;48.048;-1.928;2023-04-03T12:10:35;13.50;;;10.35;;
45049;SDS011;61798;48.048;-1.928;2023-04-03T12:12:41;16.05;;;11.88;;
45049;SDS011;61798;48.048;-1.928;2023-04-03T12:14:47;15.55;;;11.23;;
45049;SDS011;61798;48.048;-1.928;2023-04-03T12:16:54;19.27;;;11.38;;
45049;SDS011;61798;48.048;-1.928;2023-04-03T12:23:34;16.38;;;12.18;;
45049;SDS011;61798;48.048;-1.928;2023-04-03T12:26:21;17.33;;;13.05;;
45049;SDS011;61798;48.048;-1.928;2023-04-03T12:28:35;15.77;;;11.65;;
45049;SDS011;61798;48.048;-1.928;2023-04-03T12:30:44;17.95;;;12.93;;
45049;SDS011;61798;48.048;-1.928;2023-04-03T12:33:02;18.85;;;12.55;;
45049;SDS011;61798;48.048;-1.928;2023-04-03T12:45:56;17.73;;;12.40;;
45049;SDS011;61798;48.048;-1.928;2023-04-03T12:48:18;21.30;;;13.23;;
45049;SDS011;61798;48.048;-1.928;2023-04-03T12:50:31;17.88;;;13.23;;
45049;SDS011;61798;48.048;-1.928;2023-04-03T12:52:41;18.73;;;13.52;;
45049;SDS011;61798;48.048;-1.928;2023-04-03T12:55:16;18.45;;;13.32;;
45049;SDS011;61798;48.048;-1.928;2023-04-03T12:57:25;16.55;;;13.15;;
45049;SDS011;61798;48.048;-1.928;2023-04-03T12:59:32;16.48;;;12.93;;
45049;SDS011;61798;48.048;-1.928;2023-04-03T13:01:39;17.63;;;13.18;;
45049;SDS011;61798;48.048;-1.928;2023-04-03T13:03:47;17.33;;;13.60;;
45049;SDS011;61798;48.048;-1.928;2023-04-03T13:06:01;15.90;;;12.70;;
45049;SDS011;61798;48.048;-1.928;2023-04-03T13:08:11;19.05;;;13.50;;
45049;SDS011;61798;48.048;-1.928;2023-04-03T13:10:21;18.70;;;14.40;;
45049;SDS011;61798;48.048;-1.928;2023-04-03T13:12:28;18.05;;;13.75;;
45049;SDS011;61798;48.048;-1.928;2023-04-03T13:14:34;17.55;;;13.18;;
45049;SDS011;61798;48.048;-1.928;2023-04-03T13:16:40;19.52;;;13.30;;
45049;SDS011;61798;48.048;-1.928;2023-04-03T13:18:50;17.42;;;12.38;;
45049;SDS011;61798;48.048;-1.928;2023-04-03T13:21:02;22.17;;;15.23;;
45049;SDS011;61798;48.048;-1.928;2023-04-03T13:23:11;17.65;;;14.13;;
45049;SDS011;61798;48.048;-1.928;2023-04-03T13:25:24;17.80;;;13.27;;
45049;SDS011;61798;48.048;-1.928;2023-04-03T13:27:34;17.25;;;13.27;;
45049;SDS011;61798;48.048;-1.928;2023-04-03T13:29:41;16.08;;;12.75;;
45049;SDS011;61798;48.048;-1.928;2023-04-03T13:31:51;15.40;;;12.73;;
45049;SDS011;61798;48.048;-1.928;2023-04-03T13:34:04;15.80;;;12.52;;
45049;SDS011;61798;48.048;-1.928;2023-04-03T13:36:17;15.95;;;12.82;;
45049;SDS011;61798;48.048;-1.928;2023-04-03T13:38:27;16.88;;;13.00;;
45049;SDS011;61798;48.048;-1.928;2023-04-03T13:40:48;15.38;;;12.85;;
45049;SDS011;61798;48.048;-1.928;2023-04-03T13:43:04;16.65;;;13.13;;
45049;SDS011;61798;48.048;-1.928;2023-04-03T13:45:23;16.63;;;12.43;;